Island Escape — C6SK4 — position and weather

sailwx.info

Track history (hours):
 
Tides and Currents Weather Stations Pressure Air Temp Water Temp Dewpoint Dewpoint Depression Visibility Wind Speed Wind Dir Waves Ship Positions

Island Escape

Operator: V Ships Leisure SAM

Last reported at 2016-Jun-13 22:23 UTC. Time now 2016-Jun-29 09:16 UTC.
Position N 59°45' E 019°49'.
Warning: this ship's position is 15 days out of date.

; draft 7.3 m.

Type: Passenger vessel. MMSI: 311368000.

Date/timePositionNaut miles runAvg speedWind from/ knotsBaromVisibWave heightAir tempDewpointWater temp
2016-Jun-13 22:23N 59°45' E 019°49'1214.7
2016-Jun-13 21:33N 59°37' E 020°06'1211.8
2016-Jun-13 20:34N 59°26' E 020°13'1212.2
2016-Jun-13 19:34N 59°15' E 020°02'1312.9
2016-Jun-13 18:34N 59°05' E 019°46'1313.0
2016-Jun-13 17:33N 58°55' E 019°30'1313.3
2016-Jun-13 16:34N 58°44' E 019°14'1313.0
2016-Jun-13 15:34N 58°35' E 018°57'1312.9
2016-Jun-13 14:33N 58°25' E 018°41'1514.8
2016-Jun-13 13:33N 58°13' E 018°24'1514.7
2016-Jun-13 12:33N 58°00' E 018°10'1514.9
2016-Jun-13 11:33N 57°46' E 018°01'15614.1
2016-Jun-13 00:28N 55°37' E 015°21'1314.6
2016-Jun-12 23:33N 55°31' E 015°00'1514.8
2016-Jun-12 22:33N 55°23' E 014°38'1515.1
2016-Jun-12 21:33N 55°11' E 014°21'1515.4
2016-Jun-12 20:33N 55°00' E 014°02'1515.2
2016-Jun-12 19:33N 54°55' E 013°38'3014.7
2016-Jun-12 17:32N 54°46' E 012°49'1414.5
2016-Jun-12 16:33N 54°38' E 012°28'1414.3
2016-Jun-12 15:33N 54°27' E 012°13'1414.2
2016-Jun-12 14:33N 54°25' E 011°49'1514.9
2016-Jun-12 13:33N 54°31' E 011°25'1414.3
2016-Jun-12 12:33N 54°35' E 011°02'1515.0
2016-Jun-12 11:33N 54°34' E 010°36'1512.2
2016-Jun-12 10:19N 54°26' E 010°14'6 8.2
2016-Jun-12 09:34N 54°20' E 010°10'0 0.3
2016-Jun-12 08:33N 54°20' E 010°10'0 0.0
2016-Jun-12 07:32N 54°20' E 010°10'0 0.0
2016-Jun-12 06:32N 54°20' E 010°10'0 0.0
2016-Jun-12 04:32N 54°20' E 010°10'0 0.0
2016-Jun-12 03:32N 54°20' E 010°10'0 0.0
2016-Jun-12 02:32N 54°20' E 010°10'0 0.0
2016-Jun-12 01:32N 54°20' E 010°10'0 0.0
2016-Jun-12 00:32N 54°20' E 010°10'0 0.0
2016-Jun-11 23:32N 54°20' E 010°10'0 0.0
2016-Jun-11 22:32N 54°20' E 010°10'0 0.0
2016-Jun-11 21:32N 54°20' E 010°10'0 0.0
2016-Jun-11 20:32N 54°20' E 010°10'0 0.0
2016-Jun-11 19:32N 54°20' E 010°10'0 0.0
2016-Jun-11 19:02N 54°20' E 010°10'0 0.0
2016-Jun-11 18:32N 54°20' E 010°10'0 0.0
2016-Jun-11 17:32N 54°20' E 010°10'0 0.0
2016-Jun-11 16:32N 54°20' E 010°10'0 0.0
2016-Jun-11 15:32N 54°20' E 010°10'0 0.0
2016-Jun-11 14:29N 54°20' E 010°10'0 0.0
2016-Jun-11 13:32N 54°20' E 010°10'0 0.0
2016-Jun-11 12:32N 54°20' E 010°10'0 0.0
2016-Jun-11 11:32N 54°20' E 010°10'0 0.0
2016-Jun-11 10:32N 54°20' E 010°10'0 0.0
2016-Jun-11 09:32N 54°20' E 010°10'0 0.0
2016-Jun-11 07:32N 54°20' E 010°10'0 0.0
2016-Jun-11 06:32N 54°20' E 010°10'0 0.4
2016-Jun-11 05:33N 54°20' E 010°10'1010.1
2016-Jun-11 04:34N 54°30' E 010°17'1513.8
2016-Jun-11 03:27N 54°37' E 010°40'1314.4
2016-Jun-11 02:33N 54°48' E 010°51'1413.7
2016-Jun-11 01:34N 55°01' E 011°01'1514.7
2016-Jun-11 00:33N 55°15' E 011°05'5614.0
2016-Jun-10 20:33N 56°11' E 011°05'4214.0
2016-Jun-10 17:33N 56°45' E 011°50'1616.0
2016-Jun-10 16:33N 56°60' E 011°41'1615.9
2016-Jun-10 15:34N 57°15' E 011°30'1515.4
2016-Jun-10 14:33N 57°29' E 011°19'1616.3
2016-Jun-10 13:33N 57°41' E 010°58'1615.5
2016-Jun-10 12:33N 57°51' E 010°36'6816.1
2016-Jun-10 08:20N 57°57' E 008°29'1215.5
2016-Jun-10 07:34N 58°03' E 008°09'  
2016-Jun-08 00:11N 58°08' E 007°60'0 0.0
2016-Jun-07 23:15N 58°08' E 007°60'0 0.0
2016-Jun-07 22:28N 58°08' E 007°60'0 0.0
2016-Jun-07 21:06N 58°08' E 007°60'  
2016-Jun-05 10:18N 58°08' E 007°60'0 0.0
2016-Jun-05 08:32N 58°08' E 007°60'  
Track history (hours):
 
Tides and Currents Weather Stations Pressure Air Temp Water Temp Dewpoint Dewpoint Depression Visibility Wind Speed Wind Dir Waves Ship Positions

Island Escape

Operator: V Ships Leisure SAM

Last reported at 2016-Jun-13 22:23 UTC. Time now 2016-Jun-29 09:16 UTC.
Position N 59°45' E 019°49'.
Warning: this ship's position is 15 days out of date.

; draft 7.3 m.

Type: Passenger vessel. MMSI: 311368000.

Date/timePositionNaut miles runAvg speedWind from/ knotsBaromVisibWave heightAir tempDewpointWater temp
2016-Jun-13 22:23N 59°45' E 019°49'1214.7
2016-Jun-13 21:33N 59°37' E 020°06'1211.8
2016-Jun-13 20:34N 59°26' E 020°13'1212.2
2016-Jun-13 19:34N 59°15' E 020°02'1312.9
2016-Jun-13 18:34N 59°05' E 019°46'1313.0
2016-Jun-13 17:33N 58°55' E 019°30'1313.3
2016-Jun-13 16:34N 58°44' E 019°14'1313.0
2016-Jun-13 15:34N 58°35' E 018°57'1312.9
2016-Jun-13 14:33N 58°25' E 018°41'1514.8
2016-Jun-13 13:33N 58°13' E 018°24'1514.7
2016-Jun-13 12:33N 58°00' E 018°10'1514.9
2016-Jun-13 11:33N 57°46' E 018°01'15614.1
2016-Jun-13 00:28N 55°37' E 015°21'1314.6
2016-Jun-12 23:33N 55°31' E 015°00'1514.8
2016-Jun-12 22:33N 55°23' E 014°38'1515.1
2016-Jun-12 21:33N 55°11' E 014°21'1515.4
2016-Jun-12 20:33N 55°00' E 014°02'1515.2
2016-Jun-12 19:33N 54°55' E 013°38'3014.7
2016-Jun-12 17:32N 54°46' E 012°49'1414.5
2016-Jun-12 16:33N 54°38' E 012°28'1414.3
2016-Jun-12 15:33N 54°27' E 012°13'1414.2
2016-Jun-12 14:33N 54°25' E 011°49'1514.9
2016-Jun-12 13:33N 54°31' E 011°25'1414.3
2016-Jun-12 12:33N 54°35' E 011°02'1515.0
2016-Jun-12 11:33N 54°34' E 010°36'1512.2
2016-Jun-12 10:19N 54°26' E 010°14'6 8.2
2016-Jun-12 09:34N 54°20' E 010°10'0 0.3
2016-Jun-12 08:33N 54°20' E 010°10'0 0.0
2016-Jun-12 07:32N 54°20' E 010°10'0 0.0
2016-Jun-12 06:32N 54°20' E 010°10'0 0.0
2016-Jun-12 04:32N 54°20' E 010°10'0 0.0
2016-Jun-12 03:32N 54°20' E 010°10'0 0.0
2016-Jun-12 02:32N 54°20' E 010°10'0 0.0
2016-Jun-12 01:32N 54°20' E 010°10'0 0.0
2016-Jun-12 00:32N 54°20' E 010°10'0 0.0
2016-Jun-11 23:32N 54°20' E 010°10'0 0.0
2016-Jun-11 22:32N 54°20' E 010°10'0 0.0
2016-Jun-11 21:32N 54°20' E 010°10'0 0.0
2016-Jun-11 20:32N 54°20' E 010°10'0 0.0
2016-Jun-11 19:32N 54°20' E 010°10'0 0.0
2016-Jun-11 19:02N 54°20' E 010°10'0 0.0
2016-Jun-11 18:32N 54°20' E 010°10'0 0.0
2016-Jun-11 17:32N 54°20' E 010°10'0 0.0
2016-Jun-11 16:32N 54°20' E 010°10'0 0.0
2016-Jun-11 15:32N 54°20' E 010°10'0 0.0
2016-Jun-11 14:29N 54°20' E 010°10'0 0.0
2016-Jun-11 13:32N 54°20' E 010°10'0 0.0
2016-Jun-11 12:32N 54°20' E 010°10'0 0.0
2016-Jun-11 11:32N 54°20' E 010°10'0 0.0
2016-Jun-11 10:32N 54°20' E 010°10'0 0.0
2016-Jun-11 09:32N 54°20' E 010°10'0 0.0
2016-Jun-11 07:32N 54°20' E 010°10'0 0.0
2016-Jun-11 06:32N 54°20' E 010°10'0 0.4
2016-Jun-11 05:33N 54°20' E 010°10'1010.1
2016-Jun-11 04:34N 54°30' E 010°17'1513.8
2016-Jun-11 03:27N 54°37' E 010°40'1314.4
2016-Jun-11 02:33N 54°48' E 010°51'1413.7
2016-Jun-11 01:34N 55°01' E 011°01'1514.7
2016-Jun-11 00:33N 55°15' E 011°05'5614.0
2016-Jun-10 20:33N 56°11' E 011°05'4214.0
2016-Jun-10 17:33N 56°45' E 011°50'1616.0
2016-Jun-10 16:33N 56°60' E 011°41'1615.9
2016-Jun-10 15:34N 57°15' E 011°30'1515.4
2016-Jun-10 14:33N 57°29' E 011°19'1616.3
2016-Jun-10 13:33N 57°41' E 010°58'1615.5
2016-Jun-10 12:33N 57°51' E 010°36'6816.1
2016-Jun-10 08:20N 57°57' E 008°29'1215.5
2016-Jun-10 07:34N 58°03' E 008°09'  
2016-Jun-08 00:11N 58°08' E 007°60'0 0.0
2016-Jun-07 23:15N 58°08' E 007°60'0 0.0
2016-Jun-07 22:28N 58°08' E 007°60'0 0.0
2016-Jun-07 21:06N 58°08' E 007°60'  
2016-Jun-05 10:18N 58°08' E 007°60'0 0.0
2016-Jun-05 08:32N 58°08' E 007°60'  

Dump ship's entire track history